Time;durP1;ratioP1;P1;durP2;ratioP2;P2;SDS_P1;SDS_P2;PMS_P1;PMS_P2;Temp;Humidity;BMP_temperature;BMP_pressure;BME280_temperature;BME280_humidity;BME280_pressure;Samples;Min_cycle;Max_cycle;Signal;HPM_P1;HPM_P2
2023/08/04 00:01:20;;;;;;;2.60;0.50;;;17.10;99.90;;;;;;5051344;28;20879;-80
2023/08/04 00:03:47;;;;;;;3.92;0.70;;;17.10;99.90;;;;;;5051596;28;20224;-80
2023/08/04 00:06:15;;;;;;;1.45;0.57;;;17.10;99.90;;;;;;5051738;28;20247;-78
2023/08/04 00:08:43;;;;;;;0.50;0.47;;;17.10;99.90;;;;;;5050269;28;20293;-79
2023/08/04 00:11:13;;;;;;;1.17;0.50;;;17.10;99.90;;;;;;5049725;28;20224;-79
2023/08/04 00:13:41;;;;;;;1.38;0.45;;;17.10;99.90;;;;;;5049626;28;20271;-79
2023/08/04 00:16:09;;;;;;;2.92;0.60;;;17.00;99.90;;;;;;5049709;28;20233;-79
2023/08/04 00:18:37;;;;;;;1.13;0.50;;;17.10;99.90;;;;;;5049995;28;20231;-79
2023/08/04 00:21:05;;;;;;;3.70;0.40;;;17.10;99.90;;;;;;5049806;28;20260;-79
2023/08/04 00:23:33;;;;;;;0.77;0.50;;;17.10;99.90;;;;;;5067550;22;20252;-66
2023/08/04 00:26:01;;;;;;;1.83;0.60;;;17.10;99.90;;;;;;5040391;28;20206;-65
2023/08/04 00:28:30;;;;;;;1.90;0.50;;;17.10;99.90;;;;;;5047679;28;20810;-63
2023/08/04 00:30:58;;;;;;;0.47;0.47;;;17.10;99.90;;;;;;5035911;28;20281;-65
2023/08/04 00:33:26;;;;;;;5.47;0.50;;;17.20;99.90;;;;;;5045133;28;20218;-66
2023/08/04 00:35:53;;;;;;;2.85;0.45;;;17.10;99.90;;;;;;5042925;28;20220;-64
2023/08/04 00:38:21;;;;;;;2.53;0.45;;;17.10;99.90;;;;;;5037513;28;20276;-66
2023/08/04 00:40:49;;;;;;;2.30;0.40;;;17.10;99.90;;;;;;5048686;28;20237;-66
2023/08/04 00:43:17;;;;;;;2.95;0.55;;;17.10;99.90;;;;;;5037738;28;20732;-65
2023/08/04 00:45:46;;;;;;;1.10;0.60;;;17.20;99.90;;;;;;5042505;28;20768;-63
2023/08/04 00:48:14;;;;;;;0.30;0.30;;;17.20;99.90;;;;;;5045313;28;20256;-64
2023/08/04 00:50:42;;;;;;;0.75;0.45;;;17.20;99.90;;;;;;5035406;28;20268;-65
2023/08/04 00:53:11;;;;;;;2.53;0.55;;;17.20;99.90;;;;;;5046863;28;20226;-64
2023/08/04 00:55:39;;;;;;;1.23;0.40;;;17.20;99.90;;;;;;5040092;28;20279;-66
2023/08/04 00:58:06;;;;;;;6.53;0.60;;;17.20;99.90;;;;;;5039126;28;20687;-66
2023/08/04 01:00:34;;;;;;;3.55;0.50;;;17.20;99.90;;;;;;5048426;28;20201;-66
2023/08/04 01:03:04;;;;;;;2.10;0.70;;;17.20;99.90;;;;;;5019182;28;20727;-66
2023/08/04 01:05:35;;;;;;;5.65;0.50;;;17.20;99.90;;;;;;5043762;28;20206;-65
2023/08/04 01:08:05;;;;;;;2.22;0.57;;;17.20;99.90;;;;;;5043497;28;20248;-64
2023/08/04 01:10:36;;;;;;;2.80;0.77;;;17.20;99.90;;;;;;5035486;28;20681;-67
2023/08/04 01:13:05;;;;;;;4.13;0.70;;;17.10;99.90;;;;;;5015550;28;20324;-65
2023/08/04 01:15:33;;;;;;;1.40;0.38;;;17.10;99.90;;;;;;5038555;28;20275;-64
2023/08/04 01:18:00;;;;;;;6.03;0.40;;;17.10;99.90;;;;;;5047225;28;20213;-62
2023/08/04 01:20:30;;;;;;;3.63;0.50;;;17.10;99.90;;;;;;5051415;28;20206;-65
2023/08/04 01:22:59;;;;;;;3.95;0.60;;;17.10;99.90;;;;;;5034936;28;20221;-63
2023/08/04 01:25:29;;;;;;;3.78;0.50;;;17.10;99.90;;;;;;5044114;28;20201;-65
2023/08/04 01:27:58;;;;;;;4.10;0.70;;;17.10;99.90;;;;;;5042692;28;20201;-64
2023/08/04 01:30:27;;;;;;;2.22;0.50;;;17.10;99.90;;;;;;5036396;28;20214;-65
2023/08/04 01:32:55;;;;;;;1.25;0.70;;;17.10;99.90;;;;;;5047494;28;20230;-64
2023/08/04 01:35:23;;;;;;;3.25;0.47;;;17.10;99.90;;;;;;5037059;28;20202;-65
2023/08/04 01:37:50;;;;;;;1.50;0.60;;;17.10;99.90;;;;;;5040982;28;20289;-66
2023/08/04 01:40:20;;;;;;;2.78;0.60;;;17.10;99.90;;;;;;5045625;28;20236;-66
2023/08/04 01:42:48;;;;;;;1.10;0.45;;;17.10;99.90;;;;;;5034563;28;20226;-65
2023/08/04 01:45:16;;;;;;;5.05;0.60;;;17.10;99.90;;;;;;5045544;28;20293;-65
2023/08/04 01:47:45;;;;;;;4.85;0.50;;;17.10;99.90;;;;;;5040597;28;20239;-66
2023/08/04 01:50:13;;;;;;;5.57;0.60;;;17.10;99.90;;;;;;5037998;28;20584;-66
2023/08/04 01:52:42;;;;;;;1.45;0.45;;;17.10;99.90;;;;;;5047524;28;20225;-65
2023/08/04 01:55:09;;;;;;;4.60;0.70;;;17.10;99.90;;;;;;5035630;28;20666;-65
2023/08/04 01:57:39;;;;;;;0.40;0.40;;;17.10;99.90;;;;;;5042580;28;20262;-66
2023/08/04 02:00:09;;;;;;;4.60;0.50;;;17.10;99.90;;;;;;5043600;28;20234;-65
2023/08/04 02:02:37;;;;;;;2.38;0.70;;;17.10;99.90;;;;;;5034200;28;20709;-65
2023/08/04 02:05:05;;;;;;;2.80;0.80;;;17.10;99.90;;;;;;5047103;28;20238;-66
2023/08/04 02:07:33;;;;;;;2.15;0.70;;;17.10;99.90;;;;;;5038807;28;20292;-65
2023/08/04 02:10:01;;;;;;;2.97;0.70;;;17.10;99.90;;;;;;5039424;28;20249;-65
2023/08/04 02:12:29;;;;;;;9.32;0.70;;;17.10;99.90;;;;;;5046448;28;20256;-64
2023/08/04 02:15:00;;;;;;;3.03;0.90;;;17.10;99.90;;;;;;5033814;28;20329;-65
2023/08/04 02:17:28;;;;;;;3.72;0.80;;;17.10;99.90;;;;;;5046702;28;20198;-65
2023/08/04 02:19:56;;;;;;;2.22;0.75;;;17.10;99.90;;;;;;5051063;28;20212;-63
2023/08/04 02:22:23;;;;;;;3.80;0.70;;;17.20;99.90;;;;;;5035888;28;20230;-64
2023/08/04 02:24:51;;;;;;;2.85;0.65;;;17.00;99.90;;;;;;5047124;28;20245;-64
2023/08/04 02:27:19;;;;;;;5.53;0.80;;;17.00;99.90;;;;;;5036618;28;20236;-64
2023/08/04 02:29:47;;;;;;;4.22;0.70;;;17.10;99.90;;;;;;5040963;28;20737;-65
2023/08/04 02:32:16;;;;;;;4.70;0.80;;;17.00;99.90;;;;;;5044086;28;20667;-66
2023/08/04 02:34:44;;;;;;;2.95;1.17;;;17.00;99.90;;;;;;5032373;28;20309;-66
2023/08/04 02:37:12;;;;;;;3.03;0.73;;;17.00;99.90;;;;;;5035546;28;20198;-65
2023/08/04 02:39:40;;;;;;;1.92;0.60;;;17.00;99.90;;;;;;5041671;28;20237;-65
2023/08/04 02:42:08;;;;;;;6.97;0.70;;;17.00;99.90;;;;;;5043563;28;20279;-66
2023/08/04 02:44:36;;;;;;;5.80;1.00;;;17.00;99.90;;;;;;5034201;28;20234;-64
2023/08/04 02:47:04;;;;;;;6.40;0.77;;;17.00;99.90;;;;;;5046932;28;20210;-65
2023/08/04 02:49:34;;;;;;;3.30;0.90;;;17.00;99.90;;;;;;5041689;28;20229;-67
2023/08/04 02:52:02;;;;;;;3.42;1.13;;;17.00;99.90;;;;;;5042783;28;20303;-66
2023/08/04 02:54:30;;;;;;;0.80;0.80;;;17.00;99.90;;;;;;5051987;28;20312;-65
2023/08/04 02:56:57;;;;;;;1.35;0.75;;;17.00;99.90;;;;;;5037613;28;20259;-65
2023/08/04 02:59:25;;;;;;;3.60;0.70;;;17.00;99.90;;;;;;5047059;28;20660;-66
2023/08/04 03:01:53;;;;;;;3.70;0.80;;;17.00;99.90;;;;;;5044861;28;20745;-65
2023/08/04 03:04:21;;;;;;;2.03;0.93;;;17.00;99.90;;;;;;5039263;28;20206;-64
2023/08/04 03:06:50;;;;;;;2.25;0.95;;;17.00;99.90;;;;;;5050110;28;20289;-65
2023/08/04 03:09:18;;;;;;;3.63;1.17;;;17.00;99.90;;;;;;5040061;28;20233;-65
2023/08/04 03:11:46;;;;;;;2.20;1.08;;;17.00;99.90;;;;;;5044339;28;20238;-65
2023/08/04 03:14:14;;;;;;;4.90;1.25;;;17.00;99.90;;;;;;5093592;22;20228;-64
2023/08/04 03:16:42;;;;;;;1.52;1.10;;;17.00;99.90;;;;;;5077058;28;20229;-61
2023/08/04 03:19:10;;;;;;;1.80;1.25;;;17.00;99.90;;;;;;5081238;28;20200;-62
2023/08/04 03:21:38;;;;;;;3.45;1.17;;;17.00;99.90;;;;;;5085146;28;20232;-62
2023/08/04 03:24:07;;;;;;;4.35;1.40;;;17.00;99.90;;;;;;5073271;28;20299;-62
2023/08/04 03:26:35;;;;;;;4.00;1.58;;;17.00;99.90;;;;;;5073186;28;20293;-62
2023/08/04 03:29:03;;;;;;;2.67;1.40;;;17.00;99.90;;;;;;5041029;28;20194;-62
2023/08/04 03:31:31;;;;;;;3.13;1.60;;;17.00;99.90;;;;;;5073408;28;20205;-62
2023/08/04 03:33:59;;;;;;;3.92;1.50;;;17.00;99.90;;;;;;5073046;28;20607;-62
2023/08/04 03:36:26;;;;;;;1.90;1.50;;;16.90;99.90;;;;;;5073355;28;20211;-62
2023/08/04 03:38:54;;;;;;;2.05;1.58;;;16.90;99.90;;;;;;5073446;28;20300;-61
2023/08/04 03:41:23;;;;;;;5.22;1.90;;;16.90;99.90;;;;;;5073421;28;20208;-62
2023/08/04 03:43:52;;;;;;;4.40;1.80;;;16.90;99.90;;;;;;5072949;28;20217;-62
2023/08/04 03:46:19;;;;;;;5.45;2.20;;;16.90;99.90;;;;;;5072776;28;20282;-62
2023/08/04 03:48:47;;;;;;;2.90;1.50;;;16.90;99.90;;;;;;5073094;28;20197;-62
2023/08/04 03:51:17;;;;;;;4.53;1.73;;;16.90;99.90;;;;;;5073391;28;20274;-62
2023/08/04 03:53:45;;;;;;;7.88;1.73;;;16.90;99.90;;;;;;5072872;28;20217;-62
2023/08/04 03:56:13;;;;;;;2.17;1.67;;;16.90;99.90;;;;;;5072784;28;20668;-62
2023/08/04 03:58:42;;;;;;;1.80;1.70;;;16.90;99.90;;;;;;5072436;28;20288;-62
2023/08/04 04:01:10;;;;;;;2.20;2.00;;;16.90;99.90;;;;;;5072646;28;20200;-62
2023/08/04 04:03:38;;;;;;;7.28;2.28;;;16.90;99.90;;;;;;5070618;28;20304;-62
2023/08/04 04:06:06;;;;;;;2.33;2.05;;;16.90;99.90;;;;;;5056653;28;20664;-62
2023/08/04 04:08:34;;;;;;;5.22;2.60;;;16.90;99.90;;;;;;5057539;28;20252;-62
2023/08/04 04:11:02;;;;;;;4.50;2.00;;;16.90;99.90;;;;;;5051634;28;20236;-62
2023/08/04 04:13:30;;;;;;;4.22;2.35;;;16.90;99.90;;;;;;5066217;28;20237;-62
2023/08/04 04:15:59;;;;;;;3.38;2.28;;;16.80;99.90;;;;;;5057511;28;20303;-62
2023/08/04 04:18:28;;;;;;;4.65;2.78;;;16.90;99.90;;;;;;5056902;28;20374;-63
2023/08/04 04:20:56;;;;;;;4.95;2.65;;;16.80;99.90;;;;;;5071626;28;20240;-62
2023/08/04 04:23:24;;;;;;;3.83;2.78;;;16.80;99.90;;;;;;5072256;28;20252;-62
2023/08/04 04:25:52;;;;;;;4.97;2.38;;;16.80;99.90;;;;;;5072088;28;20200;-62
2023/08/04 04:28:20;;;;;;;4.50;2.53;;;16.80;99.90;;;;;;5069393;28;20197;-62
2023/08/04 04:30:48;;;;;;;4.22;2.53;;;16.80;99.90;;;;;;5061718;28;20285;-62
2023/08/04 04:33:17;;;;;;;5.13;3.05;;;16.80;99.90;;;;;;5060396;28;20225;-62
2023/08/04 04:35:50;;;;;;;3.00;2.80;;;16.90;99.90;;;;;;5071855;28;20232;-62
2023/08/04 04:38:18;;;;;;;3.10;2.80;;;16.80;99.90;;;;;;5071825;28;20664;-62
2023/08/04 04:40:54;;;;;;;6.22;2.90;;;16.80;99.90;;;;;;5072186;28;20289;-62
2023/08/04 04:43:22;;;;;;;9.30;3.33;;;16.80;99.90;;;;;;5071852;28;20303;-62
2023/08/04 04:45:50;;;;;;;4.53;3.28;;;16.80;99.90;;;;;;5071911;28;20201;-62
2023/08/04 04:48:20;;;;;;;5.78;3.03;;;16.80;99.90;;;;;;5067049;28;20217;-62
2023/08/04 04:50:48;;;;;;;5.22;3.33;;;16.80;99.90;;;;;;5058591;28;20284;-62
2023/08/04 04:53:15;;;;;;;3.97;3.08;;;16.80;99.90;;;;;;5060569;28;20353;-62
2023/08/04 04:55:43;;;;;;;4.22;2.92;;;16.80;99.90;;;;;;5050017;28;20253;-62
2023/08/04 04:58:12;;;;;;;5.90;3.70;;;16.80;99.90;;;;;;5043315;28;20293;-62
2023/08/04 05:00:40;;;;;;;4.80;3.92;;;16.80;99.90;;;;;;5048943;28;20735;-63
2023/08/04 05:03:09;;;;;;;4.03;3.58;;;16.80;99.90;;;;;;5050811;28;20238;-63
2023/08/04 05:05:38;;;;;;;5.38;4.22;;;16.80;99.90;;;;;;5050570;28;20206;-63
2023/08/04 05:08:06;;;;;;;5.75;4.30;;;16.80;99.90;;;;;;5050463;28;20209;-63
2023/08/04 05:10:34;;;;;;;7.95;4.18;;;16.80;99.90;;;;;;5055613;28;20248;-63
2023/08/04 05:13:02;;;;;;;8.18;4.32;;;16.80;99.90;;;;;;5047706;28;20268;-63
2023/08/04 05:15:30;;;;;;;3.92;3.45;;;16.80;99.90;;;;;;5056051;28;20260;-61
2023/08/04 05:17:58;;;;;;;4.10;2.97;;;16.80;99.90;;;;;;5053862;28;20237;-61
2023/08/04 05:20:26;;;;;;;5.93;3.13;;;16.90;99.90;;;;;;5055305;28;20645;-61
2023/08/04 05:22:55;;;;;;;6.47;3.67;;;16.90;99.90;;;;;;5056827;28;20221;-61
2023/08/04 05:25:23;;;;;;;6.50;3.30;;;17.10;99.90;;;;;;5055471;28;20233;-61
2023/08/04 05:27:51;;;;;;;4.07;3.30;;;17.20;99.90;;;;;;5050938;28;20244;-61
2023/08/04 05:30:19;;;;;;;4.90;3.45;;;17.20;99.90;;;;;;5052663;28;20307;-63
2023/08/04 05:32:47;;;;;;;4.50;3.45;;;17.30;99.90;;;;;;5057337;28;20229;-63
2023/08/04 05:35:16;;;;;;;5.10;2.97;;;17.40;99.90;;;;;;5055741;28;20243;-63
2023/08/04 05:37:44;;;;;;;4.07;3.67;;;17.40;99.90;;;;;;5060734;28;20197;-63
2023/08/04 05:40:13;;;;;;;4.80;3.58;;;17.50;99.90;;;;;;5071432;28;20284;-64
2023/08/04 05:42:41;;;;;;;7.13;2.95;;;17.50;99.90;;;;;;5070988;28;20267;-63
2023/08/04 05:45:10;;;;;;;6.90;3.55;;;17.50;99.90;;;;;;5071022;28;20228;-63
2023/08/04 05:47:38;;;;;;;3.35;3.05;;;17.60;99.90;;;;;;5071201;28;20233;-60
2023/08/04 05:50:07;;;;;;;4.38;3.40;;;17.60;99.90;;;;;;5056320;28;20678;-62
2023/08/04 05:52:35;;;;;;;5.30;4.00;;;17.70;99.90;;;;;;5054201;28;20233;-60
2023/08/04 05:55:03;;;;;;;9.15;3.92;;;17.70;99.90;;;;;;5048362;28;20312;-62
2023/08/04 05:57:32;;;;;;;4.38;3.65;;;17.60;99.90;;;;;;5047853;28;20598;-61
2023/08/04 06:00:00;;;;;;;4.57;3.42;;;17.60;99.90;;;;;;5051005;28;20578;-61
2023/08/04 06:02:28;;;;;;;5.22;3.78;;;17.60;99.90;;;;;;5054724;28;20233;-60
2023/08/04 06:04:56;;;;;;;6.45;4.45;;;17.60;99.90;;;;;;5055461;28;20228;-61
2023/08/04 06:07:24;;;;;;;5.68;4.40;;;17.60;99.90;;;;;;5049258;28;20237;-60
2023/08/04 06:09:52;;;;;;;4.90;3.40;;;17.50;99.90;;;;;;5049337;28;20237;-64
2023/08/04 06:12:20;;;;;;;7.47;4.22;;;17.60;99.90;;;;;;5053916;28;20264;-62
2023/08/04 06:14:49;;;;;;;7.50;4.57;;;17.60;99.90;;;;;;5052443;28;20304;-63
2023/08/04 06:17:17;;;;;;;4.90;3.85;;;17.60;99.90;;;;;;5057993;28;20288;-60
2023/08/04 06:19:45;;;;;;;6.53;4.72;;;17.60;99.90;;;;;;5060043;28;20204;-59
2023/08/04 06:22:14;;;;;;;5.10;4.60;;;17.70;99.90;;;;;;5061440;28;20202;-61
2023/08/04 06:24:42;;;;;;;5.28;4.40;;;17.60;99.90;;;;;;5052458;28;21874;-61
2023/08/04 06:27:10;;;;;;;7.38;5.00;;;17.70;99.90;;;;;;5060350;28;20197;-61
2023/08/04 06:29:38;;;;;;;4.45;4.18;;;17.70;99.90;;;;;;5054434;28;20260;-61
2023/08/04 06:32:08;;;;;;;7.30;4.55;;;17.70;99.90;;;;;;5052418;28;20284;-61
2023/08/04 06:34:36;;;;;;;9.60;5.78;;;17.70;99.90;;;;;;5055490;28;20780;-61
2023/08/04 06:37:04;;;;;;;5.80;5.22;;;17.80;99.90;;;;;;5062148;28;20229;-61
2023/08/04 06:39:32;;;;;;;7.60;4.90;;;17.80;99.90;;;;;;5053524;28;20222;-61
2023/08/04 06:42:00;;;;;;;8.57;5.88;;;17.90;99.90;;;;;;5059557;28;20229;-61
2023/08/04 06:44:28;;;;;;;8.27;5.28;;;17.90;99.90;;;;;;5053327;28;20221;-61
2023/08/04 06:46:56;;;;;;;6.43;5.55;;;17.90;99.90;;;;;;5061597;28;20288;-60
2023/08/04 06:49:25;;;;;;;6.28;5.13;;;18.00;99.90;;;;;;5059245;28;20342;-61
2023/08/04 06:51:53;;;;;;;5.65;5.18;;;18.00;99.90;;;;;;5056994;28;20220;-61
2023/08/04 06:54:21;;;;;;;11.35;5.97;;;18.00;99.90;;;;;;5059178;28;20253;-64
2023/08/04 06:56:48;;;;;;;6.38;5.78;;;18.10;99.90;;;;;;5058950;28;20732;-64
2023/08/04 06:59:16;;;;;;;6.63;5.97;;;18.10;99.90;;;;;;5062294;28;20283;-64
2023/08/04 07:01:44;;;;;;;6.10;5.70;;;18.00;99.90;;;;;;5074668;28;20618;-64
2023/08/04 07:04:13;;;;;;;8.68;5.90;;;18.00;99.90;;;;;;5073645;28;20220;-64
2023/08/04 07:06:42;;;;;;;6.53;5.15;;;17.90;99.90;;;;;;5074189;28;20224;-64
2023/08/04 07:09:10;;;;;;;7.00;5.57;;;17.90;99.90;;;;;;5074009;28;20193;-64
2023/08/04 07:11:38;;;;;;;5.93;5.07;;;17.90;99.90;;;;;;5074161;28;20201;-64
2023/08/04 07:14:06;;;;;;;7.60;6.25;;;17.90;99.90;;;;;;5073709;28;20236;-64
2023/08/04 07:16:34;;;;;;;7.20;5.88;;;17.90;99.90;;;;;;5073914;28;20278;-64
2023/08/04 07:19:02;;;;;;;7.10;5.20;;;17.90;99.90;;;;;;5053205;28;20193;-64
2023/08/04 07:21:30;;;;;;;6.32;5.72;;;17.90;99.90;;;;;;5073988;28;20201;-65
2023/08/04 07:23:59;;;;;;;8.93;6.20;;;18.00;99.90;;;;;;5073300;28;20302;-65
2023/08/04 07:26:27;;;;;;;6.53;5.70;;;17.90;99.90;;;;;;5073570;28;20276;-66
2023/08/04 07:28:55;;;;;;;6.78;6.20;;;18.00;99.90;;;;;;5073410;28;20233;-65
2023/08/04 07:31:23;;;;;;;7.55;6.13;;;18.00;99.90;;;;;;5073535;28;20240;-65
2023/08/04 07:33:50;;;;;;;8.18;5.95;;;18.00;99.90;;;;;;5072975;28;20225;-65
2023/08/04 07:36:18;;;;;;;8.60;5.55;;;18.00;99.90;;;;;;5073312;28;20297;-65
2023/08/04 07:38:46;;;;;;;7.97;6.03;;;17.90;99.90;;;;;;5056490;28;20237;-65
2023/08/04 07:41:19;;;;;;;7.47;5.88;;;17.90;99.90;;;;;;5060362;28;20205;-65
2023/08/04 07:43:47;;;;;;;7.22;6.32;;;17.90;99.90;;;;;;5062031;28;20327;-65
2023/08/04 07:46:19;;;;;;;6.68;6.00;;;17.90;99.90;;;;;;5073414;28;20201;-65
2023/08/04 07:48:49;;;;;;;8.38;5.75;;;17.90;99.90;;;;;;5073391;28;20208;-64
2023/08/04 07:51:17;;;;;;;6.45;5.90;;;17.90;99.90;;;;;;5073441;28;20288;-65
2023/08/04 07:53:45;;;;;;;7.25;6.50;;;17.90;99.90;;;;;;5072958;28;20281;-65
2023/08/04 07:56:12;;;;;;;7.28;6.35;;;18.00;99.90;;;;;;5072601;28;20299;-65
2023/08/04 07:58:42;;;;;;;6.68;5.85;;;18.00;99.90;;;;;;5072583;28;20736;-65
2023/08/04 08:01:10;;;;;;;7.05;6.35;;;18.00;99.90;;;;;;5073150;28;20209;-65
2023/08/04 08:03:38;;;;;;;6.97;6.35;;;18.10;99.90;;;;;;5072607;28;20224;-65
2023/08/04 08:06:06;;;;;;;7.25;6.55;;;18.10;99.90;;;;;;5072767;28;20207;-65
2023/08/04 08:08:34;;;;;;;6.20;5.50;;;18.20;99.90;;;;;;5072568;28;20264;-65
2023/08/04 08:11:03;;;;;;;8.13;6.10;;;18.20;99.90;;;;;;5040002;28;20197;-65
2023/08/04 08:13:31;;;;;;;8.40;6.82;;;18.20;99.90;;;;;;5072292;28;20224;-65
2023/08/04 08:16:07;;;;;;;7.38;6.68;;;18.30;99.90;;;;;;5072415;28;20287;-65
2023/08/04 08:18:35;;;;;;;8.60;6.43;;;18.30;99.90;;;;;;5060388;28;20665;-65
2023/08/04 08:21:06;;;;;;;6.47;5.97;;;18.30;99.90;;;;;;5039619;28;20367;-65
2023/08/04 08:23:34;;;;;;;7.93;6.68;;;18.30;99.90;;;;;;5071860;28;20244;-65
2023/08/04 08:26:03;;;;;;;7.30;6.45;;;18.30;99.90;;;;;;5072008;28;20201;-65
2023/08/04 08:28:31;;;;;;;8.55;6.88;;;18.30;99.90;;;;;;5072175;28;20208;-65
2023/08/04 08:31:00;;;;;;;6.40;5.80;;;18.30;99.90;;;;;;5074796;28;20201;-65
2023/08/04 08:33:28;;;;;;;12.02;6.90;;;18.30;99.90;;;;;;5072180;28;20225;-65
2023/08/04 08:35:56;;;;;;;6.13;5.63;;;18.40;99.90;;;;;;5071996;28;20553;-65
2023/08/04 08:38:24;;;;;;;6.53;5.85;;;18.40;99.90;;;;;;5072165;28;20309;-65
2023/08/04 08:40:52;;;;;;;8.82;5.97;;;18.50;99.90;;;;;;5072379;28;20204;-65
2023/08/04 08:43:20;;;;;;;7.20;6.03;;;18.50;99.90;;;;;;5071594;28;20300;-65
2023/08/04 08:45:48;;;;;;;8.27;6.18;;;18.60;99.90;;;;;;5070966;28;20213;-65
2023/08/04 08:48:17;;;;;;;11.32;6.05;;;18.70;99.90;;;;;;5071880;28;20228;-65
2023/08/04 08:50:45;;;;;;;6.97;5.75;;;18.80;99.90;;;;;;5072042;28;20276;-65
2023/08/04 08:53:13;;;;;;;8.75;6.05;;;18.80;99.90;;;;;;5071901;28;20253;-65
2023/08/04 08:55:42;;;;;;;7.05;5.13;;;18.80;99.90;;;;;;5071714;28;20201;-65
2023/08/04 08:58:10;;;;;;;9.70;5.20;;;18.80;99.90;;;;;;5071848;28;20598;-65
2023/08/04 09:00:38;;;;;;;7.10;5.30;;;18.80;99.90;;;;;;5072032;28;20197;-65
2023/08/04 09:03:06;;;;;;;6.50;5.88;;;18.80;99.90;;;;;;5071060;28;20217;-65
2023/08/04 09:05:35;;;;;;;8.82;5.68;;;18.90;99.90;;;;;;5071841;28;20197;-65
2023/08/04 09:08:04;;;;;;;6.70;6.03;;;18.90;99.90;;;;;;5071787;28;20247;-65
2023/08/04 09:10:34;;;;;;;6.05;5.55;;;18.90;99.90;;;;;;5071841;28;20243;-65
2023/08/04 09:13:02;;;;;;;7.20;5.68;;;18.90;99.90;;;;;;5038773;28;20239;-65
2023/08/04 09:15:34;;;;;;;6.55;5.28;;;18.90;99.90;;;;;;5088610;22;20224;-75
2023/08/04 09:18:04;;;;;;;5.70;5.20;;;18.90;99.90;;;;;;5088409;28;20240;-75
2023/08/04 09:20:33;;;;;;;9.77;5.38;;;19.00;99.90;;;;;;5089631;28;20247;-75
2023/08/04 09:23:02;;;;;;;10.00;6.10;;;19.00;99.90;;;;;;5073619;28;20760;-75
2023/08/04 09:25:30;;;;;;;7.03;6.15;;;19.00;99.90;;;;;;5087188;28;20196;-75
2023/08/04 09:27:59;;;;;;;4.70;4.25;;;19.10;99.90;;;;;;5087208;28;20200;-75
2023/08/04 09:30:27;;;;;;;7.88;5.25;;;19.20;99.90;;;;;;5088573;28;20203;-75
2023/08/04 09:32:54;;;;;;;8.93;5.65;;;19.40;99.90;;;;;;5088084;28;20645;-75
2023/08/04 09:35:22;;;;;;;5.82;4.80;;;19.50;99.90;;;;;;5087578;28;20303;-75
2023/08/04 09:37:50;;;;;;;8.77;4.88;;;19.60;99.90;;;;;;5087809;28;20220;-74
2023/08/04 09:40:22;;;;;;;7.45;4.82;;;19.70;99.90;;;;;;5087705;28;20196;-75
2023/08/04 09:42:50;;;;;;;10.23;5.10;;;19.80;99.90;;;;;;5087804;28;20253;-75
2023/08/04 09:45:18;;;;;;;5.78;4.25;;;19.80;99.90;;;;;;5085327;28;20647;-75
2023/08/04 09:47:47;;;;;;;6.03;4.72;;;19.80;99.90;;;;;;5081511;28;20211;-75
2023/08/04 09:50:16;;;;;;;8.48;4.65;;;19.70;99.90;;;;;;5086355;28;20212;-74
2023/08/04 09:52:44;;;;;;;6.22;5.13;;;19.70;99.90;;;;;;5084600;28;20240;-74
2023/08/04 09:55:12;;;;;;;9.32;5.45;;;19.70;99.90;;;;;;5086710;28;20245;-74
2023/08/04 09:57:42;;;;;;;12.70;5.78;;;19.60;99.90;;;;;;5088699;28;20224;-74
2023/08/04 10:00:12;;;;;;;12.52;5.95;;;19.60;99.90;;;;;;5092117;28;20266;-74
2023/08/04 10:02:40;;;;;;;11.48;5.93;;;19.60;99.90;;;;;;5090865;28;20192;-74
2023/08/04 10:05:08;;;;;;;12.05;6.82;;;19.60;99.90;;;;;;5091351;28;20207;-74
2023/08/04 10:07:36;;;;;;;8.95;5.43;;;19.60;99.90;;;;;;5092470;28;20606;-75
2023/08/04 10:10:07;;;;;;;11.18;5.97;;;19.60;99.90;;;;;;5092400;28;20571;-74
2023/08/04 10:12:35;;;;;;;10.57;5.68;;;19.60;99.90;;;;;;5092999;28;20204;-74
2023/08/04 10:15:05;;;;;;;10.63;5.32;;;19.60;99.90;;;;;;5082556;28;20207;-74
2023/08/04 10:17:33;;;;;;;10.25;5.53;;;19.60;99.90;;;;;;5112889;28;20222;-74
2023/08/04 10:20:03;;;;;;;6.15;5.38;;;19.70;99.90;;;;;;5112347;28;20286;-74
2023/08/04 10:22:32;;;;;;;9.00;5.00;;;19.70;99.90;;;;;;5113095;28;20733;-74
2023/08/04 10:25:00;;;;;;;11.52;6.15;;;19.70;99.90;;;;;;5115260;28;20195;-74
2023/08/04 10:27:28;;;;;;;10.43;5.53;;;19.80;99.90;;;;;;5115378;28;20188;-74
2023/08/04 10:30:09;;;;;;;9.15;5.55;;;19.80;99.90;;;;;;5115207;28;20257;-74
2023/08/04 10:32:37;;;;;;;6.80;5.30;;;19.90;99.90;;;;;;5114862;28;20199;-74
2023/08/04 10:35:06;;;;;;;9.75;5.88;;;19.90;99.90;;;;;;5115121;28;20196;-75
2023/08/04 10:37:45;;;;;;;13.75;5.60;;;20.00;99.90;;;;;;5115541;28;20215;-74
2023/08/04 10:40:13;;;;;;;8.20;4.93;;;20.10;99.90;;;;;;5115077;28;20195;-74
2023/08/04 10:42:57;;;;;;;8.85;5.63;;;20.20;99.90;;;;;;5114836;28;20207;-74
2023/08/04 10:45:42;;;;;;;9.57;4.90;;;20.30;99.90;;;;;;5113960;28;20253;-74
2023/08/04 10:48:09;;;;;;;12.20;5.28;;;20.40;99.90;;;;;;5109739;28;20248;-74
2023/08/04 10:50:38;;;;;;;8.20;5.20;;;20.40;99.90;;;;;;5111002;28;20199;-74
2023/08/04 10:53:06;;;;;;;11.38;5.22;;;20.50;99.90;;;;;;5114732;28;20268;-74
2023/08/04 10:55:34;;;;;;;8.52;4.80;;;20.60;99.90;;;;;;5114302;28;20282;-74
2023/08/04 10:58:03;;;;;;;7.70;4.72;;;20.70;99.90;;;;;;5114623;28;20215;-74
2023/08/04 11:00:33;;;;;;;5.20;4.70;;;20.70;99.90;;;;;;5112809;28;20223;-74
2023/08/04 11:03:00;;;;;;;10.30;4.97;;;20.80;99.90;;;;;;5097414;28;20215;-74
2023/08/04 11:05:28;;;;;;;8.35;5.13;;;20.90;99.90;;;;;;5114287;28;20215;-74
2023/08/04 11:07:56;;;;;;;7.72;4.75;;;21.00;99.90;;;;;;5114027;28;20324;-75
2023/08/04 11:10:24;;;;;;;9.43;4.93;;;21.10;99.90;;;;;;5113602;28;20210;-75
2023/08/04 11:12:53;;;;;;;9.77;4.85;;;21.20;99.90;;;;;;5114430;28;20238;-75
2023/08/04 11:15:21;;;;;;;6.28;4.55;;;21.40;99.90;;;;;;5114552;28;20235;-75
2023/08/04 11:17:50;;;;;;;7.97;4.22;;;21.60;99.90;;;;;;5114577;28;20272;-74
2023/08/04 11:20:18;;;;;;;5.07;4.10;;;21.90;99.90;;;;;;5114280;28;20199;-75
2023/08/04 11:23:00;;;;;;;6.47;3.95;;;22.10;99.90;;;;;;5114370;28;20214;-74
2023/08/04 11:25:28;;;;;;;5.97;4.25;;;22.40;99.90;;;;;;5113885;28;20196;-75
2023/08/04 11:27:56;;;;;;;7.55;4.05;;;22.80;99.90;;;;;;5114295;28;20227;-75
2023/08/04 11:30:24;;;;;;;5.50;4.10;;;23.00;99.90;;;;;;5113962;28;20203;-75
2023/08/04 11:32:53;;;;;;;5.25;3.72;;;23.00;99.90;;;;;;5113824;28;20239;-74
2023/08/04 11:35:21;;;;;;;9.00;4.55;;;22.90;99.90;;;;;;5113320;28;20270;-74
2023/08/04 11:37:49;;;;;;;11.60;4.00;;;22.70;99.90;;;;;;5113705;28;20225;-75
2023/08/04 11:40:20;;;;;;;6.32;3.78;;;22.50;99.90;;;;;;5113416;28;20207;-75
2023/08/04 11:42:48;;;;;;;6.28;4.05;;;22.40;99.90;;;;;;5113784;28;20263;-74
2023/08/04 11:45:16;;;;;;;4.22;3.63;;;22.10;99.90;;;;;;5113549;28;20199;-74
2023/08/04 11:47:44;;;;;;;6.85;3.83;;;22.00;99.90;;;;;;5113368;28;20278;-74
2023/08/04 11:50:15;;;;;;;7.32;3.20;;;22.00;99.90;;;;;;5113504;28;20611;-74
2023/08/04 11:52:46;;;;;;;3.47;3.03;;;22.00;99.90;;;;;;5113860;28;20207;-74
2023/08/04 11:55:14;;;;;;;5.97;3.10;;;22.10;99.90;;;;;;5113400;28;20199;-74
2023/08/04 11:57:48;;;;;;;5.38;3.20;;;22.20;99.90;;;;;;5113510;28;20282;-75
2023/08/04 12:00:17;;;;;;;5.07;3.50;;;22.30;99.90;;;;;;5113215;28;20286;-75
2023/08/04 12:02:57;;;;;;;4.43;2.55;;;22.60;99.90;;;;;;5113481;28;20199;-74
2023/08/04 12:05:30;;;;;;;6.47;2.88;;;23.00;99.90;;;;;;5113044;28;20664;-75
2023/08/04 12:07:59;;;;;;;5.70;3.00;;;23.40;99.90;;;;;;5113457;28;20594;-75
2023/08/04 12:10:28;;;;;;;4.32;2.38;;;23.80;99.90;;;;;;5113041;28;20203;-75
2023/08/04 12:12:56;;;;;;;3.33;2.88;;;24.00;99.90;;;;;;5113416;28;20227;-74
2023/08/04 12:15:24;;;;;;;7.05;3.55;;;24.30;99.90;;;;;;5113140;28;20203;-75
2023/08/04 12:17:51;;;;;;;4.43;2.42;;;24.60;99.90;;;;;;5113267;28;20244;-74
2023/08/04 12:20:20;;;;;;;5.07;2.70;;;25.10;99.90;;;;;;5112848;28;20621;-74
2023/08/04 12:22:50;;;;;;;3.00;2.10;;;25.80;99.90;;;;;;5123490;22;20203;31
2023/08/04 12:25:18;;;;;;;4.20;2.20;;;26.50;99.90;;;;;;4990929;28;20443;-57
2023/08/04 12:27:47;;;;;;;3.40;2.05;;;27.10;99.90;;;;;;4993623;28;20203;-57
2023/08/04 12:30:15;;;;;;;4.72;2.75;;;27.70;99.90;;;;;;4993206;28;20226;-57
2023/08/04 12:32:43;;;;;;;2.83;2.40;;;28.30;99.90;;;;;;4993035;28;20671;-59
2023/08/04 12:35:11;;;;;;;2.35;1.90;;;28.90;99.90;;;;;;4993072;28;20258;-59
2023/08/04 12:37:40;;;;;;;2.15;1.95;;;29.10;99.90;;;;;;4993016;28;20214;-59
2023/08/04 12:40:10;;;;;;;4.15;2.13;;;29.10;99.90;;;;;;4993832;28;20297;-58
2023/08/04 12:42:38;;;;;;;3.10;2.25;;;29.20;99.90;;;;;;4993296;28;20227;-59
2023/08/04 12:45:07;;;;;;;2.03;1.90;;;29.40;99.90;;;;;;4992601;28;20640;-59
2023/08/04 12:47:34;;;;;;;3.28;2.03;;;29.50;99.90;;;;;;4992950;28;20282;-59
2023/08/04 12:50:02;;;;;;;2.90;2.28;;;28.80;99.90;;;;;;4992467;28;20290;-59
2023/08/04 12:52:30;;;;;;;2.55;2.20;;;28.00;99.90;;;;;;4993132;28;20213;-59